TMW weather

Tamworth Airport
Tamworth, New South Wales, Australia

Public forecast

Using degrees Celsius for public forecast. Weather courtesy of forecast.io.

METAR (pilot weather report)

Retrieved 2017/09/21 08:00 UTC (2 hours ago):

YSTW 210800Z AUTO 23003KT 9999 // NCD 21/M03 Q1015 RF00.0/000.0

TAF (pilot weather forecast)

Retrieved 2017/09/21 06:36 UTC (3 hours ago):

TAF YSTW 210414Z 2106/2124 31010KT CAVOK FM210900 05005KT CAVOK FM211200 14005KT CAVOK